createdAt,value
2022-11-30T00:01:11.468Z,100905.38
2022-11-30T00:03:39.159Z,100906.00
2022-11-30T00:06:07.221Z,100909.03
2022-11-30T00:08:34.583Z,100905.72
2022-11-30T00:11:02.104Z,100907.72
2022-11-30T00:13:29.561Z,100905.28
2022-11-30T00:16:02.444Z,100900.59
2022-11-30T00:18:29.926Z,100914.53
2022-11-30T00:21:00.582Z,100909.22
2022-11-30T00:23:28.199Z,100916.16
2022-11-30T00:25:55.675Z,100915.25
2022-11-30T00:28:23.144Z,100909.03
2022-11-30T00:30:58.563Z,100917.09
2022-11-30T00:33:27.544Z,100914.91
2022-11-30T00:35:59.293Z,100922.97
2022-11-30T00:38:27.334Z,100912.53
2022-11-30T00:40:54.675Z,100909.84
2022-11-30T00:43:22.133Z,100911.50
2022-11-30T00:45:49.663Z,100918.72
2022-11-30T00:48:17.161Z,100915.78
2022-11-30T00:50:45.959Z,100917.00
2022-11-30T00:53:13.436Z,100918.91
2022-11-30T00:55:40.963Z,100919.53
2022-11-30T00:58:08.839Z,100916.81
2022-11-30T01:00:36.665Z,100915.06
2022-11-30T01:03:04.738Z,100911.50
2022-11-30T01:05:33.539Z,100907.28
2022-11-30T01:08:03.073Z,100907.22
2022-11-30T01:10:30.587Z,100914.41
2022-11-30T01:12:58.292Z,100912.41
2022-11-30T01:15:25.778Z,100909.94
2022-11-30T01:17:53.276Z,100903.69
2022-11-30T01:20:21.081Z,100909.22
2022-11-30T01:22:48.667Z,100902.94
2022-11-30T01:25:17.580Z,100909.25
2022-11-30T01:27:45.095Z,100910.75
2022-11-30T01:30:13.227Z,100906.53
2022-11-30T01:32:40.703Z,100908.41
2022-11-30T01:35:08.947Z,100908.44
2022-11-30T01:37:36.451Z,100914.41
2022-11-30T01:40:04.466Z,100910.94
2022-11-30T01:42:33.399Z,100917.09
2022-11-30T01:45:02.287Z,100912.72
2022-11-30T01:47:34.092Z,100914.75
2022-11-30T01:50:05.648Z,100913.13
2022-11-30T01:52:38.258Z,100913.94
2022-11-30T01:55:14.711Z,100912.13
2022-11-30T01:57:49.158Z,100904.97
2022-11-30T02:00:17.772Z,100912.94
2022-11-30T02:02:54.090Z,100914.63
2022-11-30T02:05:23.979Z,100911.97
2022-11-30T02:07:51.637Z,100918.59
2022-11-30T02:10:23.584Z,100914.34
2022-11-30T02:13:09.608Z,100918.75
2022-11-30T02:15:47.463Z,100922.75
2022-11-30T02:18:16.148Z,100924.34
2022-11-30T02:21:09.555Z,100926.50
2022-11-30T02:24:04.371Z,100917.66
2022-11-30T02:26:56.742Z,100926.78
2022-11-30T02:29:29.591Z,100934.38
2022-11-30T02:32:05.745Z,100926.22
2022-11-30T02:34:37.069Z,100921.09
2022-11-30T02:37:07.602Z,100926.97
2022-11-30T02:39:35.296Z,100926.31
2022-11-30T02:42:02.856Z,100925.78
2022-11-30T02:44:31.705Z,100923.00
2022-11-30T02:47:10.770Z,100922.88
2022-11-30T02:49:45.423Z,100927.00
2022-11-30T02:52:15.515Z,100927.69
2022-11-30T02:54:43.191Z,100923.19
2022-11-30T02:57:10.695Z,100925.16
2022-11-30T02:59:40.405Z,100929.03
2022-11-30T03:02:07.953Z,100936.13
2022-11-30T03:04:35.466Z,100937.84
2022-11-30T03:07:03.025Z,100937.81
2022-11-30T03:09:30.502Z,100941.88
2022-11-30T03:11:57.995Z,100938.09
2022-11-30T03:14:25.444Z,100941.13
2022-11-30T03:16:54.307Z,100941.00
2022-11-30T03:19:21.819Z,100946.41
2022-11-30T03:21:49.298Z,100948.13
2022-11-30T03:24:16.863Z,100950.94
2022-11-30T03:26:44.358Z,100949.84
2022-11-30T03:29:11.837Z,100949.78
2022-11-30T03:31:39.390Z,100953.59
2022-11-30T03:34:08.226Z,100952.56
2022-11-30T03:36:35.741Z,100952.44
2022-11-30T03:39:03.734Z,100949.78
2022-11-30T03:41:31.225Z,100949.09
2022-11-30T03:43:58.715Z,100953.06
2022-11-30T03:46:27.392Z,100958.94
2022-11-30T03:48:55.384Z,100963.44
2022-11-30T03:51:24.163Z,100955.72
2022-11-30T03:53:51.661Z,100959.94
2022-11-30T03:56:19.192Z,100960.06
2022-11-30T03:58:46.732Z,100964.53
2022-11-30T04:01:16.063Z,100957.22
2022-11-30T04:03:44.174Z,100962.19
2022-11-30T04:06:12.943Z,100959.53
2022-11-30T04:08:42.446Z,100960.56
2022-11-30T04:11:10.459Z,100967.56
2022-11-30T04:13:38.639Z,100966.97
2022-11-30T04:16:07.244Z,100967.13
2022-11-30T04:18:36.401Z,100962.78
2022-11-30T04:21:04.626Z,100957.63
2022-11-30T04:23:34.077Z,100956.47
2022-11-30T04:26:03.446Z,100961.19
2022-11-30T04:28:30.931Z,100960.19
2022-11-30T04:31:00.321Z,100965.63
2022-11-30T04:33:28.531Z,100963.69
2022-11-30T04:35:58.546Z,100963.31
2022-11-30T04:38:26.479Z,100964.66
2022-11-30T04:40:54.391Z,100959.50
2022-11-30T04:43:23.843Z,100956.13
2022-11-30T04:45:51.410Z,100970.06
2022-11-30T04:48:20.055Z,100963.31
2022-11-30T04:50:47.551Z,100953.31
2022-11-30T04:53:15.027Z,100966.72
2022-11-30T04:55:42.479Z,100972.06
2022-11-30T04:58:10.087Z,100968.03
2022-11-30T05:00:39.036Z,100969.69
2022-11-30T05:03:06.517Z,100969.59
2022-11-30T05:05:33.982Z,100972.88
2022-11-30T05:08:02.299Z,100977.72
2022-11-30T05:10:30.294Z,100976.00
2022-11-30T05:12:57.990Z,100981.31
2022-11-30T05:15:25.821Z,100979.78
2022-11-30T05:17:54.619Z,100985.69
2022-11-30T05:20:22.094Z,100989.09
2022-11-30T05:22:50.050Z,100990.59
2022-11-30T05:25:17.628Z,100994.66
2022-11-30T05:27:45.231Z,100994.56
2022-11-30T05:30:13.704Z,100996.31
2022-11-30T05:32:41.170Z,101007.84
2022-11-30T05:35:10.769Z,101005.97
2022-11-30T05:37:38.331Z,101006.91
2022-11-30T05:40:07.341Z,101014.59
2022-11-30T05:42:34.836Z,101007.13
2022-11-30T05:45:02.316Z,101012.41
2022-11-30T05:47:29.803Z,101011.84
2022-11-30T05:49:57.292Z,101015.44
2022-11-30T05:52:26.108Z,101012.69
2022-11-30T05:54:53.583Z,101018.06
2022-11-30T05:57:21.060Z,101016.34
2022-11-30T05:59:48.543Z,101017.41
2022-11-30T06:02:16.174Z,101032.44
2022-11-30T06:04:43.719Z,101023.47
2022-11-30T06:07:11.891Z,101029.31
2022-11-30T06:09:40.887Z,101031.50
2022-11-30T06:12:08.975Z,101033.09
2022-11-30T06:14:36.326Z,101030.78
2022-11-30T06:17:04.043Z,101028.94
2022-11-30T06:19:31.662Z,101024.03
2022-11-30T06:21:59.144Z,101028.00
2022-11-30T06:24:26.629Z,101033.59
2022-11-30T06:26:55.490Z,101032.31
2022-11-30T06:29:23.020Z,101033.75
2022-11-30T06:31:50.604Z,101025.75
2022-11-30T06:34:18.104Z,101028.63
2022-11-30T06:36:45.632Z,101027.88
2022-11-30T06:39:13.525Z,101031.41
2022-11-30T06:41:41.092Z,101041.44
2022-11-30T06:44:10.755Z,101037.69
2022-11-30T06:46:38.532Z,101036.94
2022-11-30T06:49:06.206Z,101039.56
2022-11-30T06:51:34.311Z,101047.56
2022-11-30T06:54:01.670Z,101043.53
2022-11-30T06:56:29.168Z,101045.84
2022-11-30T06:58:56.640Z,101055.44
2022-11-30T07:01:25.562Z,101057.03
2022-11-30T07:03:53.304Z,101054.97
2022-11-30T07:06:20.988Z,101058.56
2022-11-30T07:08:49.799Z,101064.84
2022-11-30T07:11:17.371Z,101064.63
2022-11-30T07:13:45.680Z,101072.47
2022-11-30T07:16:15.608Z,101074.22
2022-11-30T07:18:44.438Z,101078.91
2022-11-30T07:21:12.075Z,101077.09
2022-11-30T07:23:57.396Z,101079.63
2022-11-30T07:26:25.841Z,101086.75
2022-11-30T07:28:58.030Z,101080.66
2022-11-30T07:31:27.715Z,101083.81
2022-11-30T07:33:57.354Z,101080.44
2022-11-30T07:36:29.612Z,101086.16
2022-11-30T07:38:57.169Z,101088.59
2022-11-30T07:41:24.748Z,101083.31
2022-11-30T07:43:52.240Z,101094.66
2022-11-30T07:46:19.920Z,101084.81
2022-11-30T07:48:47.491Z,101089.41
2022-11-30T07:51:18.043Z,101087.72
2022-11-30T07:53:45.845Z,101088.41
2022-11-30T07:56:16.436Z,101086.81
2022-11-30T07:58:44.719Z,101087.44
2022-11-30T08:01:13.874Z,101088.22
2022-11-30T08:03:42.015Z,101098.69
2022-11-30T08:06:11.800Z,101093.91
2022-11-30T08:08:42.393Z,101093.28
2022-11-30T08:11:13.339Z,101095.66
2022-11-30T08:13:40.828Z,101094.13
2022-11-30T08:16:10.196Z,101094.81
2022-11-30T08:18:37.803Z,101089.03
2022-11-30T08:21:08.497Z,101089.78
2022-11-30T08:23:39.062Z,101091.63
2022-11-30T08:26:11.088Z,101093.09
2022-11-30T08:28:38.659Z,101101.72
2022-11-30T08:31:08.060Z,101107.88
2022-11-30T08:33:37.135Z,101110.81
2022-11-30T08:36:09.058Z,101106.03
2022-11-30T08:38:37.367Z,101110.97
2022-11-30T08:41:05.111Z,101117.19
2022-11-30T08:43:34.499Z,101114.94
2022-11-30T08:46:11.412Z,101116.94
2022-11-30T08:48:49.231Z,101119.91
2022-11-30T08:51:19.043Z,101110.81
2022-11-30T08:53:47.075Z,101125.72
2022-11-30T08:56:15.261Z,101125.72
2022-11-30T08:58:44.150Z,101120.31
2022-11-30T09:01:13.920Z,101129.72
2022-11-30T09:03:42.523Z,101125.41
2022-11-30T09:06:12.803Z,101117.28
2022-11-30T09:08:41.448Z,101135.22
2022-11-30T09:11:10.735Z,101136.81
2022-11-30T09:13:38.295Z,101126.56
2022-11-30T09:16:08.233Z,101131.50
2022-11-30T09:18:36.129Z,101129.91
2022-11-30T09:21:05.458Z,101129.97
2022-11-30T09:23:33.093Z,101126.13
2022-11-30T09:26:04.448Z,101130.75
2022-11-30T09:28:32.166Z,101130.44
2022-11-30T09:31:02.848Z,101130.84
2022-11-30T09:33:32.102Z,101130.88
2022-11-30T09:36:00.815Z,101129.03
2022-11-30T09:38:28.710Z,101125.81
2022-11-30T09:40:58.746Z,101127.09
2022-11-30T09:43:37.506Z,101134.22
2022-11-30T09:46:08.657Z,101127.47
2022-11-30T09:48:52.333Z,101121.94
2022-11-30T09:51:23.518Z,101129.31
2022-11-30T09:53:56.323Z,101129.31
2022-11-30T09:56:29.461Z,101118.28
2022-11-30T09:59:03.132Z,101115.81
2022-11-30T10:01:32.990Z,101116.81
2022-11-30T10:04:02.523Z,101118.56
2022-11-30T10:06:39.833Z,101121.53
2022-11-30T10:09:25.579Z,101120.13
2022-11-30T10:12:00.242Z,101115.78
2022-11-30T10:14:58.635Z,101119.97
2022-11-30T10:17:39.065Z,101117.44
2022-11-30T10:20:23.781Z,101119.06
2022-11-30T10:23:07.999Z,101116.81
2022-11-30T10:25:48.193Z,101119.06
2022-11-30T10:28:45.565Z,101114.94
2022-11-30T10:31:10.984Z,101117.31
2022-11-30T10:33:44.182Z,101118.94
2022-11-30T10:36:16.348Z,101105.84
2022-11-30T10:38:47.701Z,101111.63
2022-11-30T10:41:19.343Z,101108.56
2022-11-30T10:43:52.918Z,101109.66
2022-11-30T10:46:23.505Z,101115.81
2022-11-30T10:48:55.653Z,101110.06
2022-11-30T10:51:26.024Z,101113.03
2022-11-30T10:53:53.633Z,101115.88
2022-11-30T10:56:21.123Z,101108.41
2022-11-30T10:58:56.251Z,101110.38
2022-11-30T11:01:33.824Z,101112.06
2022-11-30T11:04:17.215Z,101111.78
2022-11-30T11:06:48.647Z,101107.44
2022-11-30T11:09:35.138Z,101110.94
2022-11-30T11:12:04.431Z,101107.50
2022-11-30T11:14:36.459Z,101106.03
2022-11-30T11:17:06.773Z,101100.56
2022-11-30T11:19:38.178Z,101111.03
2022-11-30T11:22:15.808Z,101104.06
2022-11-30T11:24:43.750Z,101102.09
2022-11-30T11:27:23.887Z,101097.03
2022-11-30T11:30:01.924Z,101100.44
2022-11-30T11:32:30.996Z,101100.06
2022-11-30T11:34:59.344Z,101105.22
2022-11-30T11:37:31.002Z,101093.41
2022-11-30T11:40:01.669Z,101101.81
2022-11-30T11:42:31.803Z,101100.22
2022-11-30T11:45:01.632Z,101096.59
2022-11-30T11:47:38.672Z,101101.69
2022-11-30T11:50:50.300Z,101099.78
2022-11-30T11:53:25.865Z,101100.59
2022-11-30T11:55:57.415Z,101101.19
2022-11-30T11:58:33.888Z,101098.50
2022-11-30T12:01:31.518Z,101089.97
2022-11-30T12:04:05.894Z,101098.63
2022-11-30T12:06:35.198Z,101096.16
2022-11-30T12:09:11.627Z,101091.91
2022-11-30T12:11:43.474Z,101093.94
2022-11-30T12:14:13.665Z,101099.16
2022-11-30T12:17:02.159Z,101092.91
2022-11-30T12:19:38.392Z,101106.41
2022-11-30T12:22:17.299Z,101099.19
2022-11-30T12:25:05.493Z,101106.63
2022-11-30T12:27:42.455Z,101100.13
2022-11-30T12:30:16.721Z,101105.47
2022-11-30T12:33:09.430Z,101098.19
2022-11-30T12:35:47.759Z,101101.03
2022-11-30T12:38:27.025Z,101111.56
2022-11-30T12:41:02.856Z,101098.28
2022-11-30T12:43:44.000Z,101108.09
2022-11-30T12:46:22.384Z,101105.50
2022-11-30T12:49:00.992Z,101104.03
2022-11-30T12:51:34.299Z,101099.72
2022-11-30T12:54:08.775Z,101100.22
2022-11-30T12:56:46.162Z,101102.13
2022-11-30T12:59:31.611Z,101103.94
2022-11-30T13:02:17.848Z,101103.06
2022-11-30T13:04:56.359Z,101093.88
2022-11-30T13:07:31.133Z,101099.63
2022-11-30T13:10:01.547Z,101095.00
2022-11-30T13:12:36.708Z,101094.25
2022-11-30T13:15:09.823Z,101100.59
2022-11-30T13:17:41.797Z,101103.06
2022-11-30T13:20:21.239Z,101095.25
2022-11-30T13:22:54.689Z,101104.09
2022-11-30T13:26:06.147Z,101105.41
2022-11-30T13:28:32.402Z,101103.44
2022-11-30T13:31:06.833Z,101103.44
2022-11-30T13:33:49.149Z,101097.34
2022-11-30T13:36:28.070Z,101100.59
2022-11-30T13:39:20.734Z,101103.91
2022-11-30T13:41:50.379Z,101115.09
2022-11-30T13:44:30.299Z,101111.47
2022-11-30T13:46:58.287Z,101112.53
2022-11-30T13:49:29.130Z,101117.31
2022-11-30T13:52:21.384Z,101113.66
2022-11-30T13:54:46.479Z,101117.06
2022-11-30T13:57:19.932Z,101119.66
2022-11-30T13:59:51.588Z,101120.28
2022-11-30T14:02:59.185Z,101126.59
2022-11-30T14:05:36.150Z,101132.25
2022-11-30T14:08:32.323Z,101133.28
2022-11-30T14:11:38.376Z,101135.13
2022-11-30T14:14:47.387Z,101127.97
2022-11-30T14:17:20.206Z,101131.47
2022-11-30T14:19:53.040Z,101137.13
2022-11-30T14:22:20.743Z,101132.69
2022-11-30T14:24:49.940Z,101131.22
2022-11-30T14:27:21.064Z,101130.38
2022-11-30T14:29:53.281Z,101140.00
2022-11-30T14:32:30.129Z,101138.97
2022-11-30T14:35:08.040Z,101135.03
2022-11-30T14:37:40.872Z,101141.69
2022-11-30T14:40:11.941Z,101130.97
2022-11-30T14:42:48.292Z,101132.94
2022-11-30T14:45:21.160Z,101131.50
2022-11-30T14:47:52.539Z,101127.84
2022-11-30T14:50:24.245Z,101135.03
2022-11-30T14:53:01.663Z,101135.31
2022-11-30T14:55:34.367Z,101131.22
2022-11-30T14:58:14.264Z,101134.91
2022-11-30T15:00:44.712Z,101139.06
2022-11-30T15:03:23.901Z,101136.06
2022-11-30T15:05:53.044Z,101131.59
2022-11-30T15:08:20.935Z,101136.19
2022-11-30T15:10:48.874Z,101136.66
2022-11-30T15:13:19.609Z,101139.69
2022-11-30T15:15:52.421Z,101138.16
2022-11-30T15:18:23.015Z,101132.44
2022-11-30T15:20:55.364Z,101145.16
2022-11-30T15:23:23.439Z,101145.63
2022-11-30T15:25:53.433Z,101146.88
2022-11-30T15:28:24.044Z,101145.00
2022-11-30T15:30:55.723Z,101144.09
2022-11-30T15:33:29.955Z,101151.88
2022-11-30T15:36:18.820Z,101152.09
2022-11-30T15:38:51.004Z,101154.91
2022-11-30T15:41:21.287Z,101151.78
2022-11-30T15:43:51.444Z,101154.84
2022-11-30T15:46:30.550Z,101148.00
2022-11-30T15:49:18.847Z,101152.75
2022-11-30T15:51:53.194Z,101146.59
2022-11-30T15:54:44.939Z,101147.94
2022-11-30T15:57:12.796Z,101146.72
2022-11-30T15:59:41.343Z,101151.28
2022-11-30T16:02:26.159Z,101155.19
2022-11-30T16:05:23.940Z,101155.50
2022-11-30T16:07:53.030Z,101162.59
2022-11-30T16:10:23.375Z,101156.22
2022-11-30T16:12:53.526Z,101150.19
2022-11-30T16:15:23.337Z,101159.00
2022-11-30T16:17:52.076Z,101150.53
2022-11-30T16:20:21.620Z,101156.09
2022-11-30T16:22:50.125Z,101151.75
2022-11-30T16:25:19.278Z,101152.50
2022-11-30T16:27:47.603Z,101158.97
2022-11-30T16:30:17.389Z,101156.09
2022-11-30T16:32:45.336Z,101154.72
2022-11-30T16:35:21.623Z,101155.28
2022-11-30T16:37:50.915Z,101158.16
2022-11-30T16:40:19.828Z,101160.72
2022-11-30T16:42:49.703Z,101151.91
2022-11-30T16:45:20.619Z,101153.91
2022-11-30T16:47:48.130Z,101153.47
2022-11-30T16:50:16.136Z,101158.19
2022-11-30T16:52:43.709Z,101157.72
2022-11-30T16:55:15.297Z,101160.84
2022-11-30T16:57:43.239Z,101162.91
2022-11-30T17:00:13.155Z,101157.34
2022-11-30T17:02:45.849Z,101163.06
2022-11-30T17:05:16.071Z,101166.28
2022-11-30T17:07:43.941Z,101154.28
2022-11-30T17:10:12.805Z,101165.56
2022-11-30T17:12:42.796Z,101166.59
2022-11-30T17:15:15.349Z,101173.28
2022-11-30T17:17:42.825Z,101160.56
2022-11-30T17:20:11.096Z,101181.94
2022-11-30T17:22:39.725Z,101169.16
2022-11-30T17:25:12.353Z,101168.13
2022-11-30T17:27:41.181Z,101180.78
2022-11-30T17:30:09.897Z,101181.03
2022-11-30T17:32:37.441Z,101183.91
2022-11-30T17:35:05.260Z,101185.91
2022-11-30T17:37:32.766Z,101178.09
2022-11-30T17:40:00.508Z,101184.47
2022-11-30T17:42:29.914Z,101192.38
2022-11-30T17:44:58.735Z,101183.88
2022-11-30T17:47:26.383Z,101198.44
2022-11-30T17:49:53.875Z,101195.09
2022-11-30T17:52:21.352Z,101205.38
2022-11-30T17:54:49.101Z,101208.19
2022-11-30T17:57:16.727Z,101210.72
2022-11-30T17:59:44.284Z,101208.09
2022-11-30T18:02:13.468Z,101211.22
2022-11-30T18:04:40.985Z,101213.66
2022-11-30T18:07:08.648Z,101213.78
2022-11-30T18:09:40.964Z,101209.97
2022-11-30T18:12:10.587Z,101211.91
2022-11-30T18:14:38.170Z,101213.34
2022-11-30T18:17:05.825Z,101212.28
2022-11-30T18:19:34.788Z,101217.81
2022-11-30T18:22:02.311Z,101223.34
2022-11-30T18:24:29.885Z,101225.75
2022-11-30T18:26:57.365Z,101222.97
2022-11-30T18:29:25.613Z,101222.06
2022-11-30T18:31:53.271Z,101227.09
2022-11-30T18:34:20.915Z,101222.91
2022-11-30T18:36:49.815Z,101242.06
2022-11-30T18:39:17.279Z,101241.28
2022-11-30T18:41:44.933Z,101240.22
2022-11-30T18:44:12.613Z,101248.41
2022-11-30T18:46:40.146Z,101248.94
2022-11-30T18:49:07.796Z,101246.16
2022-11-30T18:51:35.596Z,101245.66
2022-11-30T18:54:06.679Z,101250.06
2022-11-30T18:56:37.394Z,101248.72
2022-11-30T18:59:06.886Z,101259.72
2022-11-30T19:01:36.062Z,101259.22
2022-11-30T19:04:06.542Z,101260.91
2022-11-30T19:06:34.677Z,101264.94
2022-11-30T19:09:05.483Z,101268.22
2022-11-30T19:11:33.413Z,101255.66
2022-11-30T19:14:01.700Z,101262.69
2022-11-30T19:16:30.824Z,101255.97
2022-11-30T19:19:01.295Z,101261.84
2022-11-30T19:21:29.367Z,101267.22
2022-11-30T19:23:57.812Z,101271.66
2022-11-30T19:26:27.915Z,101258.88
2022-11-30T19:28:55.868Z,101263.41
2022-11-30T19:31:25.055Z,101265.44
2022-11-30T19:33:54.886Z,101260.78
2022-11-30T19:36:24.830Z,101268.47
2022-11-30T19:38:52.489Z,101272.13
2022-11-30T19:41:21.344Z,101275.53
2022-11-30T19:44:01.004Z,101277.50
2022-11-30T19:46:29.051Z,101276.97
2022-11-30T19:48:58.032Z,101275.47
2022-11-30T19:51:25.584Z,101291.09
2022-11-30T19:53:55.610Z,101288.81
2022-11-30T19:56:24.067Z,101285.84
2022-11-30T19:58:53.296Z,101280.84
2022-11-30T20:01:23.712Z,101286.13
2022-11-30T20:03:51.501Z,101287.03
2022-11-30T20:06:19.329Z,101293.00
2022-11-30T20:08:46.895Z,101298.19
2022-11-30T20:11:16.299Z,101301.16
2022-11-30T20:13:44.263Z,101298.22
2022-11-30T20:16:14.852Z,101306.09
2022-11-30T20:18:46.025Z,101304.13
2022-11-30T20:21:15.605Z,101312.63
2022-11-30T20:23:44.239Z,101312.69
2022-11-30T20:26:17.487Z,101316.78
2022-11-30T20:28:45.746Z,101316.78
2022-11-30T20:31:16.320Z,101314.28
2022-11-30T20:33:44.513Z,101320.06
2022-11-30T20:36:14.057Z,101320.34
2022-11-30T20:38:41.647Z,101316.19
2022-11-30T20:41:12.029Z,101321.66
2022-11-30T20:43:39.576Z,101317.44
2022-11-30T20:46:15.468Z,101324.44
2022-11-30T20:48:46.631Z,101323.78
2022-11-30T20:51:32.431Z,101322.44
2022-11-30T20:54:02.558Z,101323.31
2022-11-30T20:56:30.059Z,101328.19
2022-11-30T20:59:01.189Z,101330.81
2022-11-30T21:01:30.166Z,101334.41
2022-11-30T21:03:59.439Z,101343.69
2022-11-30T21:06:27.067Z,101327.69
2022-11-30T21:08:54.663Z,101335.66
2022-11-30T21:11:23.192Z,101329.00
2022-11-30T21:13:51.917Z,101331.41
2022-11-30T21:16:27.363Z,101335.41
2022-11-30T21:18:57.699Z,101351.56
2022-11-30T21:21:28.074Z,101348.06
2022-11-30T21:23:55.607Z,101343.69
2022-11-30T21:26:24.542Z,101344.09
2022-11-30T21:28:54.412Z,101355.94
2022-11-30T21:31:22.405Z,101348.94
2022-11-30T21:33:54.027Z,101352.22
2022-11-30T21:36:23.782Z,101352.81
2022-11-30T21:38:58.160Z,101346.84
2022-11-30T21:41:30.522Z,101352.09
2022-11-30T21:43:58.012Z,101355.31
2022-11-30T21:46:25.520Z,101361.31
2022-11-30T21:48:53.550Z,101355.41
2022-11-30T21:51:22.443Z,101357.19
2022-11-30T21:53:51.764Z,101365.63
2022-11-30T21:56:20.044Z,101360.09
2022-11-30T21:58:48.686Z,101363.88
2022-11-30T22:01:17.003Z,101354.47
2022-11-30T22:03:44.464Z,101365.94
2022-11-30T22:06:13.193Z,101364.75
2022-11-30T22:08:41.165Z,101370.06
2022-11-30T22:11:11.086Z,101361.81
2022-11-30T22:13:39.131Z,101360.66
2022-11-30T22:16:07.807Z,101360.22
2022-11-30T22:18:35.470Z,101362.84
2022-11-30T22:21:04.119Z,101367.06
2022-11-30T22:23:31.815Z,101353.75
2022-11-30T22:26:09.702Z,101360.09
2022-11-30T22:28:37.066Z,101366.59
2022-11-30T22:31:05.207Z,101372.59
2022-11-30T22:33:33.323Z,101365.50
2022-11-30T22:36:00.721Z,101366.06
2022-11-30T22:38:28.367Z,101364.22
2022-11-30T22:40:55.892Z,101357.97
2022-11-30T22:43:24.547Z,101358.75
2022-11-30T22:45:51.901Z,101359.53
2022-11-30T22:48:19.256Z,101365.59
2022-11-30T22:50:46.607Z,101363.09
2022-11-30T22:53:13.962Z,101366.13
2022-11-30T22:55:46.628Z,101371.72
2022-11-30T22:58:15.610Z,101372.47
2022-11-30T23:00:44.288Z,101369.72
2022-11-30T23:03:11.741Z,101374.31
2022-11-30T23:05:39.141Z,101365.19
2022-11-30T23:08:06.568Z,101366.84
2022-11-30T23:10:33.971Z,101362.53
2022-11-30T23:13:01.282Z,101364.22
2022-11-30T23:15:28.601Z,101358.00
2022-11-30T23:17:57.291Z,101357.41
2022-11-30T23:20:24.626Z,101357.41
2022-11-30T23:22:51.964Z,101367.31
2022-11-30T23:25:19.324Z,101361.13
2022-11-30T23:27:46.687Z,101364.94
2022-11-30T23:30:14.136Z,101355.00
2022-11-30T23:32:41.521Z,101352.69
2022-11-30T23:35:10.505Z,101359.06
2022-11-30T23:37:37.851Z,101353.81
2022-11-30T23:40:05.740Z,101356.34
2022-11-30T23:42:33.149Z,101348.78
2022-11-30T23:45:01.156Z,101346.97
2022-11-30T23:47:28.561Z,101348.09
2022-11-30T23:49:55.887Z,101346.31
2022-11-30T23:52:24.664Z,101341.06
2022-11-30T23:54:51.988Z,101343.66
2022-11-30T23:57:19.378Z,101344.50
2022-11-30T23:59:47.143Z,101341.06
